createdAt,value
2018-02-27T00:01:40.414Z,6.53
2018-02-27T00:04:08.760Z,8.17
2018-02-27T00:06:36.377Z,6.70
2018-02-27T00:09:03.972Z,5.90
2018-02-27T00:11:31.560Z,5.50
2018-02-27T00:13:59.171Z,10.93
2018-02-27T00:16:26.784Z,8.93
2018-02-27T00:18:55.189Z,4.53
2018-02-27T00:21:22.807Z,5.83
2018-02-27T00:23:50.424Z,4.50
2018-02-27T00:26:18.024Z,5.13
2018-02-27T00:28:45.650Z,4.00
2018-02-27T00:31:13.255Z,7.10
2018-02-27T00:33:40.849Z,7.20
2018-02-27T00:36:08.468Z,8.33
2018-02-27T00:38:36.050Z,5.20
2018-02-27T00:41:04.432Z,6.00
2018-02-27T00:43:32.784Z,5.40
2018-02-27T00:46:00.377Z,4.97
2018-02-27T00:48:28.761Z,5.43
2018-02-27T00:50:56.371Z,6.00
2018-02-27T00:53:24.016Z,8.37
2018-02-27T00:55:51.596Z,9.63
2018-02-27T00:58:19.180Z,7.70
2018-02-27T01:00:47.576Z,6.70
2018-02-27T01:03:15.177Z,6.03
2018-02-27T01:05:42.824Z,7.10
2018-02-27T01:08:10.402Z,4.13
2018-02-27T01:10:37.999Z,9.37
2018-02-27T01:13:06.398Z,8.90
2018-02-27T01:15:34.001Z,4.40
2018-02-27T01:18:01.751Z,4.90
2018-02-27T01:20:29.359Z,7.03
2018-02-27T01:22:57.714Z,6.20
2018-02-27T01:25:25.323Z,6.37
2018-02-27T01:27:52.904Z,5.47
2018-02-27T01:30:20.516Z,8.23
2018-02-27T01:32:48.864Z,9.57
2018-02-27T01:35:16.449Z,4.90
2018-02-27T01:37:44.829Z,4.20
2018-02-27T01:40:13.205Z,4.87
2018-02-27T01:42:41.614Z,7.30
2018-02-27T01:45:09.198Z,8.37
2018-02-27T01:47:36.831Z,4.60
2018-02-27T01:50:04.408Z,5.00
2018-02-27T01:52:31.993Z,4.67
2018-02-27T01:54:59.599Z,7.87
2018-02-27T01:57:27.968Z,4.87
2018-02-27T01:59:56.348Z,7.70
2018-02-27T02:02:24.689Z,4.20
2018-02-27T02:04:52.284Z,6.43
2018-02-27T02:07:20.651Z,9.87
2018-02-27T02:09:48.239Z,4.67
2018-02-27T02:12:15.869Z,4.20
2018-02-27T02:14:44.241Z,6.27
2018-02-27T02:17:11.817Z,7.50
2018-02-27T02:19:40.207Z,10.30
2018-02-27T02:22:08.645Z,6.57
2018-02-27T02:24:36.271Z,6.80
2018-02-27T02:27:03.857Z,10.30
2018-02-27T02:29:31.455Z,7.07
2018-02-27T02:31:59.816Z,5.33
2018-02-27T02:34:27.422Z,6.47
2018-02-27T02:36:55.009Z,10.60
2018-02-27T02:39:22.663Z,7.40
2018-02-27T02:42:23.593Z,6.00
2018-02-27T02:44:51.215Z,5.40
2018-02-27T02:47:19.567Z,11.23
2018-02-27T02:49:47.160Z,9.60
2018-02-27T02:52:15.523Z,4.97
2018-02-27T02:54:43.880Z,3.87
2018-02-27T02:57:11.495Z,5.13
2018-02-27T02:59:39.074Z,13.33
2018-02-27T03:02:06.683Z,10.70
2018-02-27T03:04:35.051Z,8.93
2018-02-27T03:07:03.543Z,12.37
2018-02-27T03:09:31.893Z,6.10
2018-02-27T03:11:59.523Z,8.32
2018-02-27T03:14:27.114Z,6.82
2018-02-27T03:16:54.703Z,5.95
2018-02-27T03:19:23.082Z,7.65
2018-02-27T03:21:51.460Z,16.37
2018-02-27T03:24:19.841Z,3.25
2018-02-27T03:26:48.186Z,5.62
2018-02-27T03:29:15.827Z,11.18
2018-02-27T03:31:43.424Z,11.20
2018-02-27T03:34:11.058Z,5.00
2018-02-27T03:36:38.667Z,6.03
2018-02-27T03:39:06.283Z,7.53
2018-02-27T03:41:33.868Z,7.82
2018-02-27T03:44:02.443Z,6.57
2018-02-27T03:46:30.027Z,5.25
2018-02-27T03:48:57.645Z,4.00
2018-02-27T03:51:25.225Z,4.45
2018-02-27T03:53:53.604Z,6.18
2018-02-27T03:56:21.945Z,5.10
2018-02-27T03:58:49.560Z,3.72
2018-02-27T04:01:17.135Z,9.45
2018-02-27T04:03:44.760Z,8.10
2018-02-27T04:06:13.106Z,6.50
2018-02-27T04:08:40.695Z,4.30
2018-02-27T04:11:08.714Z,5.60
2018-02-27T04:13:36.308Z,4.03
2018-02-27T04:16:03.941Z,4.05
2018-02-27T04:18:31.535Z,4.43
2018-02-27T04:20:59.120Z,9.00
2018-02-27T04:23:27.497Z,4.12
2018-02-27T04:25:55.093Z,6.10
2018-02-27T04:28:22.732Z,4.18
2018-02-27T04:30:50.325Z,4.05
2018-02-27T04:33:17.971Z,5.85
2018-02-27T04:35:45.551Z,13.15
2018-02-27T04:38:13.147Z,5.15
2018-02-27T04:40:41.525Z,5.20
2018-02-27T04:43:09.880Z,5.28
2018-02-27T04:45:37.491Z,7.43
2018-02-27T04:48:05.074Z,5.72
2018-02-27T04:50:32.726Z,7.37
2018-02-27T04:53:00.302Z,12.50
2018-02-27T04:55:27.909Z,15.77
2018-02-27T04:57:56.287Z,6.05
2018-02-27T05:00:24.633Z,6.45
2018-02-27T05:02:52.248Z,5.20
2018-02-27T05:05:19.842Z,4.80
2018-02-27T05:07:47.470Z,5.85
2018-02-27T05:10:15.058Z,6.90
2018-02-27T05:12:42.641Z,8.80
2018-02-27T05:15:10.266Z,11.57
2018-02-27T05:17:37.844Z,7.78
2018-02-27T05:20:05.463Z,7.97
2018-02-27T05:22:33.048Z,7.15
2018-02-27T05:25:00.683Z,6.95
2018-02-27T05:27:28.273Z,6.00
2018-02-27T05:29:55.855Z,5.82
2018-02-27T05:32:23.472Z,3.90
2018-02-27T05:34:51.063Z,4.90
2018-02-27T05:37:18.676Z,7.65
2018-02-27T05:39:46.247Z,5.22
2018-02-27T05:42:13.874Z,5.45
2018-02-27T05:44:42.236Z,7.72
2018-02-27T05:47:09.820Z,6.55
2018-02-27T05:49:38.202Z,7.15
2018-02-27T05:52:06.541Z,8.32
2018-02-27T05:54:34.164Z,10.65
2018-02-27T05:57:01.761Z,6.57
2018-02-27T05:59:29.379Z,4.00
2018-02-27T06:01:56.967Z,6.93
2018-02-27T06:04:24.557Z,6.43
2018-02-27T06:06:52.938Z,5.40
2018-02-27T06:09:21.304Z,4.72
2018-02-27T06:11:48.924Z,4.37
2018-02-27T06:14:16.502Z,5.72
2018-02-27T06:16:44.126Z,4.47
2018-02-27T06:19:11.717Z,4.35
2018-02-27T06:21:41.226Z,7.32
2018-02-27T06:24:08.837Z,7.30
2018-02-27T06:26:37.185Z,8.00
2018-02-27T06:29:04.794Z,16.65
2018-02-27T06:31:32.377Z,5.93
2018-02-27T06:34:00.000Z,6.03
2018-02-27T06:36:27.594Z,5.10
2018-02-27T06:38:55.194Z,5.62
2018-02-27T06:41:23.584Z,6.25
2018-02-27T06:43:51.931Z,9.00
2018-02-27T06:46:19.570Z,6.82
2018-02-27T06:48:47.172Z,4.90
2018-02-27T06:51:15.578Z,6.30
2018-02-27T06:53:43.172Z,6.43
2018-02-27T06:56:10.772Z,6.55
2018-02-27T06:58:39.155Z,6.12
2018-02-27T07:01:07.517Z,7.25
2018-02-27T07:03:35.142Z,9.15
2018-02-27T07:06:02.739Z,7.32
2018-02-27T07:08:30.362Z,9.88
2018-02-27T07:10:57.962Z,5.20
2018-02-27T07:13:25.543Z,6.93
2018-02-27T07:15:53.159Z,10.50
2018-02-27T07:18:20.755Z,10.82
2018-02-27T07:20:49.131Z,9.25
2018-02-27T07:23:17.471Z,7.00
2018-02-27T07:25:45.059Z,6.50
2018-02-27T07:28:13.451Z,12.30
2018-02-27T07:30:41.843Z,11.35
2018-02-27T07:33:09.503Z,21.47
2018-02-27T07:35:37.092Z,12.00
2018-02-27T07:38:04.684Z,11.73
2018-02-27T07:40:32.325Z,10.70
2018-02-27T07:42:59.912Z,11.83
2018-02-27T07:45:27.515Z,10.17
2018-02-27T07:47:55.102Z,7.80
2018-02-27T07:50:22.679Z,12.00
2018-02-27T07:52:50.292Z,10.73
2018-02-27T07:55:17.886Z,11.20
2018-02-27T07:57:45.516Z,12.10
2018-02-27T08:00:13.100Z,17.30
2018-02-27T08:02:40.680Z,15.20
2018-02-27T08:05:08.287Z,10.50
2018-02-27T08:07:35.869Z,14.67
2018-02-27T08:10:03.502Z,13.13
2018-02-27T08:12:31.109Z,10.73
2018-02-27T08:14:58.697Z,14.10
2018-02-27T08:17:27.076Z,16.27
2018-02-27T08:19:54.653Z,14.83
2018-02-27T08:22:23.027Z,20.73
2018-02-27T08:24:51.369Z,12.77
2018-02-27T08:27:18.983Z,15.70
2018-02-27T08:29:46.566Z,17.07
2018-02-27T08:32:14.195Z,16.37
2018-02-27T08:34:41.820Z,12.83
2018-02-27T08:37:09.418Z,13.43
2018-02-27T08:39:37.116Z,16.90
2018-02-27T08:42:04.725Z,12.57
2018-02-27T08:44:33.125Z,12.07
2018-02-27T08:47:00.714Z,17.27
2018-02-27T08:49:28.302Z,12.57
2018-02-27T08:51:56.697Z,9.57
2018-02-27T08:54:25.103Z,13.00
2018-02-27T08:56:52.765Z,11.03
2018-02-27T08:59:20.380Z,11.87
2018-02-27T09:01:48.049Z,13.43
2018-02-27T09:04:17.373Z,10.07
2018-02-27T09:06:44.970Z,9.03
2018-02-27T09:09:12.613Z,8.83
2018-02-27T09:11:40.229Z,10.20
2018-02-27T09:14:08.611Z,9.10
2018-02-27T09:16:36.956Z,11.03
2018-02-27T09:19:05.328Z,7.77
2018-02-27T09:21:32.945Z,6.90
2018-02-27T09:24:00.533Z,7.33
2018-02-27T09:26:28.167Z,11.17
2018-02-27T09:28:55.766Z,10.40
2018-02-27T09:31:23.396Z,10.03
2018-02-27T09:33:50.982Z,9.23
2018-02-27T09:36:18.623Z,12.00
2018-02-27T09:38:46.247Z,6.97
2018-02-27T09:41:13.832Z,10.80
2018-02-27T09:43:41.451Z,11.67
2018-02-27T09:46:09.049Z,6.23
2018-02-27T09:48:36.669Z,7.10
2018-02-27T09:51:04.478Z,12.37
2018-02-27T09:53:32.129Z,6.90
2018-02-27T09:55:59.730Z,11.63
2018-02-27T09:58:27.355Z,7.43
2018-02-27T10:00:54.989Z,12.23
2018-02-27T10:03:23.385Z,6.63
2018-02-27T10:05:51.008Z,7.83
2018-02-27T10:08:18.605Z,9.37
2018-02-27T10:10:46.984Z,9.17
2018-02-27T10:13:15.345Z,10.93
2018-02-27T10:15:43.714Z,10.80
2018-02-27T10:18:12.116Z,27.40
2018-02-27T10:20:40.470Z,9.40
2018-02-27T10:23:08.291Z,12.17
2018-02-27T10:25:35.873Z,9.43
2018-02-27T10:28:03.582Z,8.17
2018-02-27T10:30:31.941Z,11.53
2018-02-27T10:32:59.531Z,9.70
2018-02-27T10:35:27.199Z,9.43
2018-02-27T10:37:54.799Z,9.23
2018-02-27T10:40:22.432Z,11.73
2018-02-27T10:42:50.020Z,7.97
2018-02-27T10:45:17.677Z,7.23
2018-02-27T10:47:45.282Z,9.23
2018-02-27T10:50:13.733Z,11.63
2018-02-27T10:52:41.325Z,7.33
2018-02-27T10:55:08.955Z,8.73
2018-02-27T10:57:36.543Z,7.30
2018-02-27T11:00:04.133Z,7.67
2018-02-27T11:02:31.751Z,6.67
2018-02-27T11:05:00.120Z,10.27
2018-02-27T11:07:27.732Z,6.70
2018-02-27T11:09:55.349Z,9.00
2018-02-27T11:12:23.739Z,15.00
2018-02-27T11:14:52.114Z,6.10
2018-02-27T11:17:19.699Z,6.17
2018-02-27T11:19:47.328Z,11.47
2018-02-27T11:22:15.698Z,8.40
2018-02-27T11:24:44.072Z,7.23
2018-02-27T11:27:11.663Z,8.10
2018-02-27T11:29:39.302Z,7.57
2018-02-27T11:32:07.696Z,6.63
2018-02-27T11:34:35.321Z,10.83
2018-02-27T11:37:02.915Z,6.30
2018-02-27T11:39:30.500Z,8.23
2018-02-27T11:41:58.107Z,10.70
2018-02-27T11:44:25.721Z,6.60
2018-02-27T11:46:53.389Z,7.10
2018-02-27T11:49:21.076Z,7.10
2018-02-27T11:51:48.736Z,5.87
2018-02-27T11:54:16.339Z,7.83
2018-02-27T11:56:43.934Z,8.23
2018-02-27T11:59:11.677Z,7.70
2018-02-27T12:01:39.239Z,6.20
2018-02-27T12:04:06.853Z,7.70
2018-02-27T12:06:34.459Z,6.83
2018-02-27T12:09:02.150Z,6.00
2018-02-27T12:11:29.801Z,8.53
2018-02-27T12:13:57.373Z,6.90
2018-02-27T12:16:24.973Z,6.57
2018-02-27T12:18:53.327Z,7.80
2018-02-27T12:21:20.937Z,7.00
2018-02-27T12:23:48.517Z,7.20
2018-02-27T12:26:16.137Z,5.87
2018-02-27T12:28:43.718Z,6.23
2018-02-27T12:31:11.291Z,5.90
2018-02-27T12:33:38.889Z,5.73
2018-02-27T12:36:06.471Z,8.30
2018-02-27T12:38:34.850Z,6.97
2018-02-27T12:41:03.203Z,7.07
2018-02-27T12:43:30.807Z,7.07
2018-02-27T12:45:58.378Z,6.47
2018-02-27T12:48:25.984Z,6.37
2018-02-27T12:50:53.568Z,4.87
2018-02-27T12:53:21.915Z,4.70
2018-02-27T12:55:49.513Z,6.27
2018-02-27T12:58:17.159Z,5.10
2018-02-27T13:00:44.721Z,5.10
2018-02-27T13:03:12.305Z,5.00
2018-02-27T13:05:39.942Z,5.57
2018-02-27T13:08:07.525Z,4.60
2018-02-27T13:10:35.112Z,6.57
2018-02-27T13:13:02.711Z,4.63
2018-02-27T13:15:31.057Z,4.00
2018-02-27T13:17:58.668Z,2.77
2018-02-27T13:20:26.242Z,3.87
2018-02-27T13:22:53.881Z,6.00
2018-02-27T13:25:22.255Z,9.10
2018-02-27T13:27:49.866Z,7.00
2018-02-27T13:30:17.457Z,5.40
2018-02-27T13:32:45.850Z,5.57
2018-02-27T13:35:14.430Z,6.03
2018-02-27T13:37:42.768Z,8.53
2018-02-27T13:40:10.387Z,7.80
2018-02-27T13:42:37.999Z,5.93
2018-02-27T13:45:05.697Z,6.40
2018-02-27T13:47:34.041Z,5.53
2018-02-27T13:50:01.773Z,6.57
2018-02-27T13:52:29.368Z,6.43
2018-02-27T13:54:56.969Z,5.73
2018-02-27T13:57:24.569Z,10.83
2018-02-27T13:59:52.160Z,7.10
2018-02-27T14:02:20.534Z,8.90
2018-02-27T14:04:48.913Z,6.37
2018-02-27T14:07:16.518Z,5.30
2018-02-27T14:09:44.107Z,8.73
2018-02-27T14:12:11.718Z,6.07
2018-02-27T14:14:39.292Z,5.70
2018-02-27T14:17:07.017Z,10.53
2018-02-27T14:19:35.369Z,10.67
2018-02-27T14:22:03.211Z,13.00
2018-02-27T14:24:30.823Z,8.97
2018-02-27T14:26:59.227Z,5.80
2018-02-27T14:29:26.867Z,6.73
2018-02-27T14:31:55.253Z,15.27
2018-02-27T14:34:23.652Z,7.33
2018-02-27T14:36:51.297Z,5.00
2018-02-27T14:39:18.960Z,5.83
2018-02-27T14:41:46.538Z,5.83
2018-02-27T14:44:14.140Z,7.03
2018-02-27T14:46:41.705Z,5.70
2018-02-27T14:49:09.315Z,4.87
2018-02-27T14:51:36.903Z,8.20
2018-02-27T14:54:04.498Z,8.63
2018-02-27T14:56:32.899Z,6.00
2018-02-27T14:59:00.497Z,6.40
2018-02-27T15:01:28.111Z,7.50
2018-02-27T15:03:56.473Z,6.27
2018-02-27T15:06:24.863Z,5.93
2018-02-27T15:08:53.245Z,10.63
2018-02-27T15:11:20.840Z,5.93
2018-02-27T15:13:48.459Z,9.00
2018-02-27T15:16:16.808Z,7.53
2018-02-27T15:18:44.421Z,13.93
2018-02-27T15:21:12.017Z,44.13
2018-02-27T15:23:39.651Z,14.53
2018-02-27T15:26:07.257Z,11.87
2018-02-27T15:28:35.774Z,9.47
2018-02-27T15:31:03.595Z,6.87
2018-02-27T15:33:31.270Z,7.97
2018-02-27T15:35:59.713Z,14.50
2018-02-27T15:38:27.315Z,11.17
2018-02-27T15:40:55.677Z,8.20
2018-02-27T15:43:23.288Z,18.27
2018-02-27T15:45:50.916Z,9.33
2018-02-27T15:48:19.321Z,7.43
2018-02-27T15:50:46.911Z,6.23
2018-02-27T15:53:14.538Z,5.50
2018-02-27T15:55:42.172Z,8.97
2018-02-27T15:58:10.557Z,7.27
2018-02-27T16:00:38.913Z,7.50
2018-02-27T16:03:06.522Z,9.20
2018-02-27T16:05:34.118Z,11.33
2018-02-27T16:08:01.739Z,7.40
2018-02-27T16:10:29.342Z,7.90
2018-02-27T16:12:56.970Z,19.13
2018-02-27T16:15:24.576Z,15.50
2018-02-27T16:17:52.226Z,9.37
2018-02-27T16:20:19.835Z,12.20
2018-02-27T16:22:47.454Z,10.20
2018-02-27T16:25:15.112Z,15.77
2018-02-27T16:27:42.754Z,17.37
2018-02-27T16:30:10.401Z,12.23
2018-02-27T16:32:38.046Z,8.33
2018-02-27T16:35:05.760Z,9.57
2018-02-27T16:37:33.386Z,12.33
2018-02-27T16:40:01.017Z,8.60
2018-02-27T16:42:28.641Z,11.93
2018-02-27T16:44:56.273Z,13.87
2018-02-27T16:47:23.887Z,11.40
2018-02-27T16:49:51.476Z,14.73
2018-02-27T16:52:19.102Z,10.30
2018-02-27T16:54:47.465Z,18.47
2018-02-27T16:57:15.842Z,16.67
2018-02-27T16:59:43.456Z,13.10
2018-02-27T17:02:11.091Z,12.87
2018-02-27T17:04:38.727Z,25.63
2018-02-27T17:07:07.155Z,21.17
2018-02-27T17:09:34.736Z,14.63
2018-02-27T17:12:02.339Z,10.63
2018-02-27T17:14:30.759Z,19.30
2018-02-27T17:16:58.356Z,13.67
2018-02-27T17:19:25.988Z,12.03
2018-02-27T17:21:53.577Z,34.00
2018-02-27T17:24:21.172Z,15.30
2018-02-27T17:26:48.797Z,26.73
2018-02-27T17:29:17.162Z,21.70
2018-02-27T17:31:44.802Z,22.20
2018-02-27T17:34:12.401Z,17.47
2018-02-27T17:36:40.803Z,17.80
2018-02-27T17:39:08.387Z,12.03
2018-02-27T17:41:36.017Z,17.23
2018-02-27T17:44:03.616Z,17.70
2018-02-27T17:46:31.240Z,14.40
2018-02-27T17:48:58.842Z,17.57
2018-02-27T17:51:26.429Z,17.43
2018-02-27T17:53:54.053Z,14.90
2018-02-27T17:56:21.643Z,17.70
2018-02-27T17:58:50.551Z,21.50
2018-02-27T18:01:18.918Z,20.07
2018-02-27T18:03:46.507Z,16.80
2018-02-27T18:06:15.029Z,16.73
2018-02-27T18:08:42.631Z,17.87
2018-02-27T18:11:11.029Z,19.03
2018-02-27T18:13:38.631Z,16.43
2018-02-27T18:16:06.357Z,22.50
2018-02-27T18:18:33.992Z,17.53
2018-02-27T18:21:02.346Z,18.60
2018-02-27T18:23:29.984Z,24.00
2018-02-27T18:25:57.618Z,16.80
2018-02-27T18:28:25.227Z,17.10
2018-02-27T18:30:52.868Z,18.40
2018-02-27T18:33:20.466Z,20.70
2018-02-27T18:35:48.079Z,17.30
2018-02-27T18:38:15.783Z,17.03
2018-02-27T18:40:43.612Z,18.80
2018-02-27T18:43:11.240Z,15.57
2018-02-27T18:45:38.839Z,18.23
2018-02-27T18:48:06.442Z,21.63
2018-02-27T18:50:34.996Z,16.27
2018-02-27T18:53:02.888Z,14.17
2018-02-27T18:55:31.424Z,18.80
2018-02-27T18:57:59.030Z,21.57
2018-02-27T19:00:27.539Z,18.77
2018-02-27T19:02:55.153Z,18.20
2018-02-27T19:05:22.817Z,16.20
2018-02-27T19:07:50.460Z,16.60
2018-02-27T19:10:18.050Z,16.47
2018-02-27T19:12:45.664Z,18.83
2018-02-27T19:15:13.268Z,17.13
2018-02-27T19:17:41.611Z,24.50
2018-02-27T19:20:09.411Z,20.00
2018-02-27T19:22:37.013Z,23.47
2018-02-27T19:25:04.640Z,19.40
2018-02-27T19:27:33.004Z,20.30
2018-02-27T19:30:00.736Z,19.40
2018-02-27T19:32:28.324Z,20.70
2018-02-27T19:34:55.920Z,23.60
2018-02-27T19:37:23.543Z,30.00
2018-02-27T19:39:51.148Z,19.57
2018-02-27T19:42:18.765Z,13.83
2018-02-27T19:44:46.593Z,21.07
2018-02-27T19:47:14.252Z,22.23
2018-02-27T19:49:41.885Z,50.23
2018-02-27T19:52:09.542Z,14.53
2018-02-27T19:54:37.169Z,24.63
2018-02-27T19:57:04.750Z,20.40
2018-02-27T19:59:33.445Z,25.27
2018-02-27T20:02:01.046Z,22.20
2018-02-27T20:04:28.816Z,15.87
2018-02-27T20:06:56.408Z,24.40
2018-02-27T20:09:24.948Z,16.70
2018-02-27T20:11:52.541Z,18.00
2018-02-27T20:14:25.839Z,18.70
2018-02-27T20:16:53.432Z,24.93
2018-02-27T20:19:21.187Z,31.27
2018-02-27T20:21:49.066Z,17.73
2018-02-27T20:24:20.151Z,20.50
2018-02-27T20:26:47.760Z,20.57
2018-02-27T20:29:20.899Z,25.20
2018-02-27T20:31:48.543Z,21.07
2018-02-27T20:34:16.377Z,21.30
2018-02-27T20:36:43.969Z,16.97
2018-02-27T20:39:17.183Z,22.30
2018-02-27T20:41:44.767Z,19.60
2018-02-27T20:44:13.299Z,16.10
2018-02-27T20:46:40.875Z,16.70
2018-02-27T20:49:08.532Z,15.07
2018-02-27T20:51:36.168Z,19.33
2018-02-27T20:54:03.776Z,20.67
2018-02-27T20:56:31.414Z,17.23
2018-02-27T20:58:58.999Z,20.67
2018-02-27T21:01:27.360Z,17.03
2018-02-27T21:03:55.101Z,18.50
2018-02-27T21:06:22.717Z,18.90
2018-02-27T21:08:50.338Z,17.80
2018-02-27T21:11:17.926Z,13.10
2018-02-27T21:13:46.487Z,17.87
2018-02-27T21:16:14.076Z,17.10
2018-02-27T21:18:42.593Z,19.20
2018-02-27T21:21:10.199Z,19.30
2018-02-27T21:23:38.748Z,22.20
2018-02-27T21:26:06.366Z,21.60
2018-02-27T21:28:33.978Z,16.57
2018-02-27T21:31:01.619Z,17.90
2018-02-27T21:33:29.208Z,17.70
2018-02-27T21:35:56.815Z,22.77
2018-02-27T21:38:24.428Z,24.33
2018-02-27T21:40:52.032Z,17.60
2018-02-27T21:43:19.643Z,20.87
2018-02-27T21:45:47.246Z,25.03
2018-02-27T21:48:14.886Z,13.70
2018-02-27T21:50:43.269Z,15.97
2018-02-27T21:53:11.640Z,17.40
2018-02-27T21:55:40.032Z,15.87
2018-02-27T21:58:08.390Z,14.53
2018-02-27T22:00:36.022Z,11.40
2018-02-27T22:03:03.856Z,12.47
2018-02-27T22:05:32.318Z,17.03
2018-02-27T22:08:00.020Z,14.07
2018-02-27T22:10:27.625Z,16.50
2018-02-27T22:12:56.163Z,12.10
2018-02-27T22:15:23.768Z,13.57
2018-02-27T22:17:52.315Z,9.80
2018-02-27T22:20:20.101Z,9.73
2018-02-27T22:22:47.873Z,16.77
2018-02-27T22:25:15.466Z,10.20
2018-02-27T22:27:43.055Z,11.77
2018-02-27T22:30:10.693Z,10.23
2018-02-27T22:32:38.283Z,9.53
2018-02-27T22:35:05.975Z,13.23
2018-02-27T22:37:34.421Z,12.63
2018-02-27T22:40:02.045Z,18.47
2018-02-27T22:42:29.627Z,9.73
2018-02-27T22:44:57.225Z,9.43
2018-02-27T22:47:24.850Z,11.43
2018-02-27T22:49:52.454Z,18.87
2018-02-27T22:52:20.989Z,15.37
2018-02-27T22:54:48.583Z,12.90
2018-02-27T22:57:17.178Z,26.43
2018-02-27T22:59:45.576Z,10.37
2018-02-27T23:02:13.245Z,9.67
2018-02-27T23:04:40.870Z,14.87
2018-02-27T23:07:08.469Z,11.67
2018-02-27T23:09:36.081Z,10.67
2018-02-27T23:12:03.790Z,12.27
2018-02-27T23:14:31.455Z,14.80
2018-02-27T23:16:59.247Z,11.97
2018-02-27T23:19:26.846Z,12.87
2018-02-27T23:21:55.405Z,10.07
2018-02-27T23:24:23.079Z,14.97
2018-02-27T23:26:52.370Z,15.93
2018-02-27T23:29:21.176Z,9.00
2018-02-27T23:31:49.648Z,10.63
2018-02-27T23:34:18.090Z,10.63
2018-02-27T23:36:45.688Z,8.87
2018-02-27T23:39:13.308Z,10.80
2018-02-27T23:41:40.898Z,10.10
2018-02-27T23:44:09.309Z,10.13
2018-02-27T23:46:37.683Z,14.87
2018-02-27T23:49:06.036Z,10.03
2018-02-27T23:51:33.771Z,9.77
2018-02-27T23:54:01.361Z,11.57
2018-02-27T23:56:29.013Z,10.13
2018-02-27T23:58:56.610Z,12.07
